Fitchburg, MA

2:22 AM EST on January 31, 2015 (GMT -0500)
Pleasant Street | Change Station
CLOSE
Current Station
Personal Weather Station
Location: Lunenburg, MA
Elevation: 463 ft
Nearby Weather Stations

Elev 463 ft 42.58 °N, 71.76 °W | Updated 10 minutes ago

Partly Cloudy
Partly Cloudy
10.9 °F
Feels Like -1 °F
N
8.3
Wind Variable Wind from ESE

Today
High -- | Low -- °F
--% Chance of Precip.
Yesterday
High -- | Low -- °F
Precip. -- in
7:02 AM 4:59 PM
Waxing Gibbous, 88% visible
Pressure 29.85 in
Visibility 10.0 miles
Clouds Mostly Cloudy 9500 ft
Windchill -1 °F
Dew Point 0 °F
Humidity 62%
Rainfall 0.00 in
Snow Depth Not available.
UV 0 out of 12
Pollen .10 out of 12
Air Quality Not available.
Flu Activity Not available.
METAR KAFN 310652Z AUTO 33008KT 10SM BKN095 M14/M19 A2979 RMK AO2 SLP108 T11391189

More Conditions Fewer Conditions

Pressure 29.85 in
Visibility 10.0 miles
Clouds Mostly Cloudy 9500 ft
Windchill -1 °F
Dew Point 0 °F
Humidity 62%
Rainfall 0.00 in
Snow Depth Not available.
UV 0 out of 12
Pollen .10 out of 12
Air Quality Not available.
Flu Activity Not available.
METAR KAFN 310652Z AUTO 33008KT 10SM BKN095 M14/M19 A2979 RMK AO2 SLP108 T11391189

More Conditions Fewer Conditions

10-Day Weather Forecast

Almanac

Astronomy

Jan. 31, 2015 Rise Set
Actual Time
Civil Twilight
Nautical Twilight
Astronomical Twilight
Moon
Length of Visible Light
Length of Day
Tomorrow will be .
, % of the Moon is Illuminated

Today's Extremes

State Highs State Lows

Community

WunderPhotos

Upload Photos

1,792,014 photos uploaded!

WunderBlogs® & News

Nearby

Air Quality

  Air Quality AQ Index Pollutant
Not available.

Snow Depth

Station Depth Elevation

Earthquake Activity

City Distance Mag. Time & Date
Minimum magnitude displayed is 2.5.

Coastal Water Temperatures

Place Temperature

Nearby Weather Stations